createdAt,value
2022-08-30T00:04:08.278Z,97382.78
2022-08-30T00:09:10.420Z,97389.50
2022-08-30T00:14:12.418Z,97383.75
2022-08-30T00:19:14.387Z,97386.84
2022-08-30T00:24:16.241Z,97396.25
2022-08-30T00:29:17.981Z,97387.84
2022-08-30T00:34:19.766Z,97401.59
2022-08-30T00:39:21.550Z,97386.75
2022-08-30T00:44:24.233Z,97386.25
2022-08-30T00:49:26.421Z,97392.00
2022-08-30T00:54:29.299Z,97394.09
2022-08-30T00:59:31.499Z,97388.56
2022-08-30T01:04:34.005Z,97396.94
2022-08-30T01:09:36.778Z,97389.25
2022-08-30T01:14:38.501Z,97396.22
2022-08-30T01:19:45.766Z,97388.47
2022-08-30T01:24:49.035Z,97392.44
2022-08-30T01:29:50.966Z,97400.94
2022-08-30T01:34:52.673Z,97399.97
2022-08-30T01:39:54.602Z,97390.19
2022-08-30T01:44:56.306Z,97394.88
2022-08-30T01:49:58.352Z,97388.41
2022-08-30T01:55:00.270Z,97388.09
2022-08-30T02:00:02.183Z,97382.66
2022-08-30T02:05:13.522Z,97387.09
2022-08-30T02:10:15.608Z,97387.41
2022-08-30T02:15:17.655Z,97379.72
2022-08-30T02:20:20.588Z,97385.41
2022-08-30T02:25:22.354Z,97373.91
2022-08-30T02:30:24.279Z,97375.16
2022-08-30T02:35:27.074Z,97383.59
2022-08-30T02:40:28.893Z,97377.13
2022-08-30T02:45:30.631Z,97379.94
2022-08-30T02:50:32.374Z,97383.00
2022-08-30T02:55:34.376Z,97379.22
2022-08-30T03:00:37.135Z,97385.19
2022-08-30T03:05:39.765Z,97386.81
2022-08-30T03:10:41.658Z,97384.53
2022-08-30T03:15:43.355Z,97387.88
2022-08-30T03:20:46.208Z,97387.31
2022-08-30T03:25:57.301Z,97390.53
2022-08-30T03:30:59.043Z,97390.25
2022-08-30T03:36:00.806Z,97384.03
2022-08-30T03:41:02.672Z,97385.69
2022-08-30T03:46:04.840Z,97388.81
2022-08-30T03:51:06.782Z,97382.81
2022-08-30T03:56:08.485Z,97381.03
2022-08-30T04:01:10.401Z,97387.97
2022-08-30T04:06:12.252Z,97383.72
2022-08-30T04:11:15.697Z,97393.22
2022-08-30T04:16:19.982Z,97398.31
2022-08-30T04:21:21.789Z,97399.59
2022-08-30T04:26:24.019Z,97399.50
2022-08-30T04:31:31.440Z,97411.47
2022-08-30T04:36:33.417Z,97426.84
2022-08-30T04:41:36.858Z,97436.25
2022-08-30T04:46:44.423Z,97438.66
2022-08-30T04:51:46.667Z,97442.63
2022-08-30T04:56:48.464Z,97447.28
2022-08-30T05:01:50.308Z,97447.72
2022-08-30T05:06:52.885Z,97446.53
2022-08-30T05:11:55.004Z,97445.56
2022-08-30T05:16:56.887Z,97440.28
2022-08-30T05:21:58.797Z,97435.91
2022-08-30T05:27:00.665Z,97434.78
2022-08-30T05:32:02.581Z,97445.78
2022-08-30T05:37:04.393Z,97443.91
2022-08-30T05:42:06.258Z,97452.59
2022-08-30T05:47:07.987Z,97447.88
2022-08-30T05:52:09.726Z,97457.31
2022-08-30T05:57:11.983Z,97459.59
2022-08-30T06:02:14.216Z,97450.78
2022-08-30T06:07:17.210Z,97458.28
2022-08-30T06:12:21.931Z,97453.22
2022-08-30T06:17:23.617Z,97451.81
2022-08-30T06:22:25.347Z,97448.19
2022-08-30T06:27:27.149Z,97452.59
2022-08-30T06:32:28.991Z,97470.34
2022-08-30T06:37:32.913Z,97454.34
2022-08-30T06:42:34.663Z,97447.75
2022-08-30T06:47:36.432Z,97460.25
2022-08-30T06:52:39.105Z,97464.13
2022-08-30T06:57:40.882Z,97452.16
2022-08-30T07:02:43.162Z,97461.16
2022-08-30T07:07:44.972Z,97463.53
2022-08-30T07:12:47.754Z,97449.28
2022-08-30T07:18:08.311Z,97453.81
2022-08-30T07:23:10.538Z,97447.94
2022-08-30T07:28:12.909Z,97448.00
2022-08-30T07:33:14.733Z,97453.19
2022-08-30T07:38:16.627Z,97457.66
2022-08-30T07:43:18.769Z,97457.81
2022-08-30T07:48:20.680Z,97450.81
2022-08-30T07:53:22.571Z,97437.56
2022-08-30T07:58:24.300Z,97447.75
2022-08-30T08:03:26.838Z,97448.22
2022-08-30T08:08:28.609Z,97447.22
2022-08-30T08:13:32.772Z,97457.06
2022-08-30T08:18:38.405Z,97449.81
2022-08-30T08:23:40.102Z,97461.56
2022-08-30T08:28:41.909Z,97454.50
2022-08-30T08:33:44.159Z,97450.31
2022-08-30T08:38:45.966Z,97450.25
2022-08-30T08:43:47.746Z,97448.47
2022-08-30T08:49:01.413Z,97446.69
2022-08-30T08:54:12.622Z,97455.50
2022-08-30T08:59:16.101Z,97457.06
2022-08-30T09:04:23.867Z,97447.91
2022-08-30T09:09:32.884Z,97448.16
2022-08-30T09:14:38.998Z,97437.72
2022-08-30T09:19:45.348Z,97441.16
2022-08-30T09:24:52.423Z,97445.59
2022-08-30T09:30:05.039Z,97433.78
2022-08-30T09:35:09.061Z,97429.56
2022-08-30T09:40:15.337Z,97428.88
2022-08-30T09:45:28.358Z,97414.53
2022-08-30T09:50:36.408Z,97408.47
2022-08-30T09:56:03.015Z,97410.38
2022-08-30T10:01:30.546Z,97403.56
2022-08-30T10:06:54.277Z,97396.81
2022-08-30T10:12:07.438Z,97398.44
2022-08-30T10:17:51.739Z,97393.69
2022-08-30T10:23:05.019Z,97386.28
2022-08-30T10:28:16.127Z,97380.31
2022-08-30T10:33:47.055Z,97377.63
2022-08-30T10:38:52.401Z,97368.59
2022-08-30T10:44:26.827Z,97369.31
2022-08-30T10:49:36.262Z,97372.47
2022-08-30T10:54:50.391Z,97361.88
2022-08-30T11:00:01.464Z,97352.59
2022-08-30T11:05:22.685Z,97357.97
2022-08-30T11:10:57.017Z,97350.34
2022-08-30T11:16:06.356Z,97338.91
2022-08-30T11:21:22.482Z,97343.06
2022-08-30T11:26:50.692Z,97331.81
2022-08-30T11:31:53.418Z,97333.72
2022-08-30T11:36:55.202Z,97335.19
2022-08-30T11:42:29.495Z,97325.41
2022-08-30T11:47:47.661Z,97320.94
2022-08-30T11:53:05.523Z,97330.09
2022-08-30T11:58:16.439Z,97319.97
2022-08-30T12:03:32.260Z,97322.78
2022-08-30T12:08:35.076Z,97318.47
2022-08-30T12:13:37.970Z,97299.47
2022-08-30T12:18:50.530Z,97297.78
2022-08-30T12:24:03.712Z,97305.38
2022-08-30T12:29:26.962Z,97294.31
2022-08-30T12:34:28.691Z,97300.22
2022-08-30T12:39:36.703Z,97290.81
2022-08-30T12:44:38.615Z,97290.72
2022-08-30T12:49:41.550Z,97294.31
2022-08-30T12:54:44.518Z,97299.19
2022-08-30T12:59:59.274Z,97293.38
2022-08-30T13:05:34.331Z,97292.16
2022-08-30T13:10:36.367Z,97296.16
2022-08-30T13:15:42.533Z,97285.94
2022-08-30T13:20:46.552Z,97289.94
2022-08-30T13:25:50.222Z,97279.84
2022-08-30T13:30:52.771Z,97271.69
2022-08-30T13:35:54.530Z,97267.19
2022-08-30T13:40:56.394Z,97259.88
2022-08-30T13:45:58.457Z,97251.81
2022-08-30T13:51:00.677Z,97235.00
2022-08-30T13:56:04.165Z,97240.88
2022-08-30T14:01:06.088Z,97239.78
2022-08-30T14:06:33.537Z,97230.91
2022-08-30T14:11:30.627Z,97233.09
2022-08-30T14:16:33.899Z,97226.56
2022-08-30T14:21:36.255Z,97223.41
2022-08-30T14:26:39.836Z,97220.50
2022-08-30T14:31:42.460Z,97224.28
2022-08-30T14:36:46.002Z,97226.88
2022-08-30T14:41:51.969Z,97223.13
2022-08-30T14:46:55.102Z,97215.81
2022-08-30T14:51:57.117Z,97212.53
2022-08-30T14:56:58.845Z,97200.44
2022-08-30T15:02:01.641Z,97197.00
2022-08-30T15:07:04.265Z,97198.09
2022-08-30T15:12:06.224Z,97190.06
2022-08-30T15:17:09.421Z,97191.22
2022-08-30T15:22:11.237Z,97188.88
2022-08-30T15:27:12.948Z,97173.72
2022-08-30T15:32:14.883Z,97173.06
2022-08-30T15:37:22.300Z,97166.31
2022-08-30T15:42:25.951Z,97165.31
2022-08-30T15:47:27.890Z,97156.78
2022-08-30T15:52:30.483Z,97156.47
2022-08-30T15:57:32.455Z,97146.72
2022-08-30T16:02:34.239Z,97148.34
2022-08-30T16:07:40.559Z,97140.97
2022-08-30T16:12:42.694Z,97152.22
2022-08-30T16:17:44.793Z,97146.91
2022-08-30T16:22:47.110Z,97136.34
2022-08-30T16:27:48.890Z,97137.66
2022-08-30T16:32:50.702Z,97135.16
2022-08-30T16:37:52.386Z,97133.25
2022-08-30T16:42:54.185Z,97131.06
2022-08-30T16:47:56.020Z,97130.00
2022-08-30T16:52:57.735Z,97129.88
2022-08-30T16:57:59.443Z,97123.69
2022-08-30T17:03:01.979Z,97124.56
2022-08-30T17:08:04.750Z,97139.91
2022-08-30T17:13:07.427Z,97139.94
2022-08-30T17:18:09.005Z,97140.28
2022-08-30T17:23:11.186Z,97138.03
2022-08-30T17:28:12.892Z,97149.91
2022-08-30T17:33:15.138Z,97145.69
2022-08-30T17:38:19.804Z,97149.25
2022-08-30T17:43:21.930Z,97155.41
2022-08-30T17:48:23.736Z,97149.97
2022-08-30T17:53:27.872Z,97152.94
2022-08-30T17:58:29.895Z,97166.44
2022-08-30T18:03:32.191Z,97172.72
2022-08-30T18:08:35.393Z,97172.38
2022-08-30T18:13:37.704Z,97177.53
2022-08-30T18:18:39.458Z,97181.75
2022-08-30T18:23:41.471Z,97190.03
2022-08-30T18:28:44.210Z,97195.63
2022-08-30T18:33:46.626Z,97208.09
2022-08-30T18:38:48.298Z,97201.66
2022-08-30T18:44:01.801Z,97217.44
2022-08-30T18:49:16.360Z,97222.06
2022-08-30T18:55:27.219Z,97224.25
2022-08-30T19:00:29.655Z,97225.41
2022-08-30T19:05:31.504Z,97214.47
2022-08-30T19:10:35.851Z,97213.31
2022-08-30T19:15:38.074Z,97206.44
2022-08-30T19:20:41.494Z,97203.06
2022-08-30T19:25:43.633Z,97201.28
2022-08-30T19:30:45.321Z,97205.94
2022-08-30T19:35:50.956Z,97218.31
2022-08-30T19:41:00.686Z,97215.03
2022-08-30T19:46:02.599Z,97212.25
2022-08-30T19:51:12.311Z,97213.28
2022-08-30T19:56:15.641Z,97209.88
2022-08-30T20:01:33.249Z,97217.09
2022-08-30T20:06:35.840Z,97220.09
2022-08-30T20:11:38.858Z,97225.38
2022-08-30T20:16:42.132Z,97229.53
2022-08-30T20:21:44.079Z,97234.97
2022-08-30T20:26:46.023Z,97230.81
2022-08-30T20:31:48.943Z,97233.84
2022-08-30T20:36:52.019Z,97227.34
2022-08-30T20:41:57.214Z,97238.47
2022-08-30T20:46:58.950Z,97235.47
2022-08-30T20:52:00.601Z,97241.94
2022-08-30T20:57:07.083Z,97240.09
2022-08-30T21:02:08.870Z,97240.19
2022-08-30T21:07:12.563Z,97238.72
2022-08-30T21:12:14.290Z,97254.88
2022-08-30T21:17:16.049Z,97251.31
2022-08-30T21:22:17.850Z,97253.63
2022-08-30T21:27:21.298Z,97260.50
2022-08-30T21:32:23.105Z,97252.81
2022-08-30T21:37:25.253Z,97259.03
2022-08-30T21:42:27.631Z,97262.38
2022-08-30T21:47:29.302Z,97254.03
2022-08-30T21:52:33.418Z,97260.75
2022-08-30T21:57:35.147Z,97260.75
2022-08-30T22:02:37.068Z,97260.28
2022-08-30T22:07:38.775Z,97257.16
2022-08-30T22:12:41.545Z,97257.66
2022-08-30T22:17:43.570Z,97263.88
2022-08-30T22:22:45.601Z,97263.72
2022-08-30T22:27:47.622Z,97249.25
2022-08-30T22:32:49.467Z,97256.91
2022-08-30T22:37:53.723Z,97250.84
2022-08-30T22:42:55.540Z,97252.16
2022-08-30T22:47:57.995Z,97250.16
2022-08-30T22:52:59.779Z,97245.44
2022-08-30T22:58:01.865Z,97240.06
2022-08-30T23:03:03.545Z,97241.38
2022-08-30T23:08:06.617Z,97251.84
2022-08-30T23:13:08.309Z,97251.84
2022-08-30T23:18:10.066Z,97251.56
2022-08-30T23:23:30.777Z,97247.75
2022-08-30T23:28:51.109Z,97247.56
2022-08-30T23:34:11.469Z,97249.38
2022-08-30T23:39:31.783Z,97245.00
2022-08-30T23:44:52.221Z,97245.97
2022-08-30T23:50:13.133Z,97233.50
2022-08-30T23:55:33.621Z,97232.69
